createdAt,value
2023-01-01T00:02:29.202Z,55.85
2023-01-01T00:05:12.370Z,61.75
2023-01-01T00:10:32.847Z,71.57
2023-01-01T00:13:05.810Z,66.30
2023-01-01T00:15:34.746Z,66.97
2023-01-01T00:21:24.487Z,69.22
2023-01-01T00:23:57.064Z,70.28
2023-01-01T00:26:38.192Z,77.88
2023-01-01T00:29:24.395Z,77.80
2023-01-01T00:32:23.126Z,73.38
2023-01-01T00:35:26.031Z,75.38
2023-01-01T00:38:30.110Z,76.57
2023-01-01T00:41:26.543Z,73.38
2023-01-01T00:44:20.997Z,78.25
2023-01-01T00:47:16.402Z,79.18
2023-01-01T00:53:00.903Z,76.32
2023-01-01T00:55:34.027Z,72.78
2023-01-01T00:58:17.847Z,71.00
2023-01-01T01:01:45.562Z,68.07
2023-01-01T01:07:28.271Z,72.70
2023-01-01T01:10:47.687Z,72.85
2023-01-01T01:13:22.796Z,86.28
2023-01-01T01:15:56.316Z,87.32
2023-01-01T01:18:52.988Z,85.65
2023-01-01T01:25:32.372Z,90.88
2023-01-01T01:31:46.781Z,96.68
2023-01-01T01:37:13.186Z,100.78
2023-01-01T01:39:50.274Z,106.10
2023-01-01T01:45:56.967Z,102.93
2023-01-01T07:41:06.581Z,111.38
2023-01-01T10:13:13.748Z,37.33
2023-01-01T10:15:49.754Z,35.95
2023-01-01T10:18:40.875Z,36.47
2023-01-01T10:25:20.566Z,33.95
2023-01-01T15:55:35.215Z,72.35
2023-01-01T15:58:43.984Z,68.28
2023-01-01T16:01:35.827Z,72.38
2023-01-01T16:04:28.293Z,75.90
2023-01-01T16:06:58.190Z,70.97
2023-01-01T16:09:25.479Z,71.55
2023-01-01T16:11:54.295Z,72.05
2023-01-01T16:14:21.265Z,69.50
2023-01-01T16:16:54.924Z,71.43
2023-01-01T16:19:23.000Z,69.05
2023-01-01T16:21:50.034Z,69.63
2023-01-01T16:24:18.824Z,70.07
2023-01-01T16:26:46.584Z,71.45
2023-01-01T16:29:13.537Z,81.88
2023-01-01T16:31:41.102Z,81.30
2023-01-01T16:34:11.715Z,80.40
2023-01-01T16:36:38.694Z,75.40
2023-01-01T16:39:05.569Z,75.57
2023-01-01T16:41:32.601Z,73.78
2023-01-01T16:43:59.622Z,75.32
2023-01-01T16:46:28.023Z,77.07
2023-01-01T16:48:55.167Z,76.32
2023-01-01T16:51:29.064Z,79.45
2023-01-01T16:53:57.393Z,78.95
2023-01-01T16:56:24.335Z,78.03
2023-01-01T16:58:54.201Z,76.43
2023-01-01T17:01:28.960Z,77.55
2023-01-01T17:03:58.340Z,77.30
2023-01-01T17:06:25.208Z,77.18
2023-01-01T17:08:52.155Z,77.68
2023-01-01T17:11:19.402Z,74.88
2023-01-01T17:13:47.818Z,75.10
2023-01-01T17:16:23.010Z,76.32
2023-01-01T17:21:40.433Z,75.10
2023-01-01T17:24:07.919Z,77.20
2023-01-01T17:26:34.812Z,77.72
2023-01-01T17:29:03.015Z,75.93
2023-01-01T17:31:30.296Z,72.78
2023-01-01T17:33:57.365Z,73.90
2023-01-01T17:36:27.184Z,75.38
2023-01-01T17:38:54.538Z,74.00
2023-01-01T17:41:21.538Z,72.22
2023-01-01T17:43:50.760Z,73.70
2023-01-01T17:46:25.947Z,72.78
2023-01-01T17:48:53.124Z,70.32
2023-01-01T17:51:20.537Z,70.82
2023-01-01T17:53:48.543Z,68.15
2023-01-01T17:56:17.467Z,67.63
2023-01-01T17:58:46.050Z,67.78
2023-01-01T18:01:22.251Z,66.25
2023-01-01T18:03:51.160Z,84.82
2023-01-01T18:06:18.438Z,84.95
2023-01-01T18:08:45.806Z,81.50
2023-01-01T18:11:12.703Z,77.15
2023-01-01T18:13:39.653Z,76.70
2023-01-01T18:16:08.893Z,72.32
2023-01-01T18:18:39.879Z,70.95
2023-01-01T18:21:22.314Z,70.97
2023-01-01T18:23:54.369Z,74.05
2023-01-01T18:26:23.238Z,73.38
2023-01-01T18:28:55.266Z,70.45
2023-01-01T18:31:23.391Z,68.53
2023-01-01T18:33:50.878Z,65.90
2023-01-01T18:36:29.979Z,65.32
2023-01-01T18:39:13.040Z,66.60
2023-01-01T18:41:49.130Z,62.42
2023-01-01T18:44:26.068Z,65.20
2023-01-01T18:47:02.053Z,65.38
2023-01-01T18:49:29.141Z,65.05
2023-01-01T18:52:07.422Z,65.15
2023-01-01T18:54:35.356Z,64.45
2023-01-01T18:57:28.975Z,64.55
2023-01-01T19:00:00.456Z,74.65
2023-01-01T19:02:33.813Z,71.80
2023-01-01T19:05:29.793Z,68.18
2023-01-01T19:08:21.749Z,68.50
2023-01-01T19:11:00.254Z,68.00
2023-01-01T19:13:36.696Z,65.70
2023-01-01T19:16:30.982Z,64.95
2023-01-01T19:19:21.357Z,63.90
2023-01-01T19:21:52.521Z,64.95
2023-01-01T19:24:28.174Z,63.10
2023-01-01T19:27:12.565Z,65.38
2023-01-01T19:29:43.714Z,68.05
2023-01-01T19:32:10.726Z,69.80
2023-01-01T19:34:40.136Z,70.20
2023-01-01T19:37:08.324Z,67.28
2023-01-01T19:39:35.814Z,67.72
2023-01-01T19:42:07.233Z,62.92
2023-01-01T19:44:35.507Z,64.60
2023-01-01T19:47:04.835Z,64.53
2023-01-01T19:49:41.433Z,65.13
2023-01-01T19:52:13.574Z,80.35
2023-01-01T19:54:41.459Z,58.42
2023-01-01T19:57:08.417Z,71.07
2023-01-01T19:59:35.274Z,70.65
2023-01-01T20:02:44.132Z,68.25
2023-01-01T20:04:57.790Z,67.35
2023-01-01T20:07:27.165Z,68.05
2023-01-01T20:09:54.218Z,68.18
2023-01-01T20:12:21.369Z,69.15
2023-01-01T20:14:48.717Z,67.60
2023-01-01T20:17:15.566Z,75.72
2023-01-01T20:19:45.374Z,91.00
2023-01-01T20:22:14.795Z,80.60
2023-01-01T20:24:42.597Z,72.45
2023-01-01T20:27:09.966Z,71.05
2023-01-01T20:29:40.578Z,65.80
2023-01-01T20:32:12.618Z,64.15
2023-01-01T20:34:40.368Z,64.43
2023-01-01T20:37:26.705Z,63.28
2023-01-01T20:39:53.762Z,62.47
2023-01-01T20:42:20.805Z,61.10
2023-01-01T20:44:48.297Z,63.67
2023-01-01T20:47:15.725Z,62.03
2023-01-01T20:49:43.104Z,62.97
2023-01-01T20:52:10.155Z,62.50
2023-01-01T20:54:38.090Z,63.63
2023-01-01T20:57:05.293Z,61.92
2023-01-01T20:59:37.228Z,60.05
2023-01-01T21:02:10.361Z,61.45
2023-01-01T21:04:41.212Z,64.47
2023-01-01T21:07:09.799Z,62.90
2023-01-01T21:09:37.309Z,62.95
2023-01-01T21:12:04.645Z,64.45
2023-01-01T21:14:32.251Z,61.00
2023-01-01T21:17:00.193Z,62.55
2023-01-01T21:19:29.611Z,61.90
2023-01-01T21:21:58.453Z,62.20
2023-01-01T21:24:28.505Z,60.95
2023-01-01T21:27:23.128Z,61.35
2023-01-01T21:29:52.736Z,60.53
2023-01-01T21:32:27.733Z,61.33
2023-01-01T21:34:55.880Z,61.30
2023-01-01T21:37:49.670Z,62.60
2023-01-01T21:40:49.179Z,61.17
2023-01-01T21:43:32.125Z,63.00
2023-01-01T21:46:25.097Z,63.10
2023-01-01T21:49:02.086Z,60.55
2023-01-01T21:51:33.443Z,57.72
2023-01-01T21:54:34.043Z,62.72
2023-01-01T21:57:15.389Z,61.15
2023-01-01T21:59:43.974Z,61.83
2023-01-01T22:02:10.947Z,59.63
2023-01-01T22:04:47.931Z,60.80
2023-01-01T22:10:16.563Z,62.38
2023-01-01T22:12:43.881Z,62.38
2023-01-01T22:15:26.176Z,60.58
2023-01-01T22:18:11.917Z,59.65
2023-01-01T22:20:42.530Z,61.85
2023-01-01T22:23:31.967Z,64.05
2023-01-01T22:25:58.996Z,60.65
2023-01-01T22:28:30.441Z,58.45
2023-01-01T22:31:01.830Z,60.03
2023-01-01T22:33:38.768Z,62.40
2023-01-01T22:36:27.995Z,59.45
2023-01-01T22:38:57.946Z,60.08
2023-01-01T22:41:27.278Z,63.55
2023-01-01T22:44:03.724Z,66.40
2023-01-01T22:46:39.471Z,64.35
2023-01-01T22:49:31.508Z,64.50
2023-01-01T22:51:58.697Z,61.90
2023-01-01T22:54:25.697Z,60.88
2023-01-01T22:56:52.773Z,61.83
2023-01-01T22:59:19.890Z,61.50
2023-01-01T23:01:47.161Z,60.33
2023-01-01T23:04:16.175Z,60.67
2023-01-01T23:06:43.107Z,58.90
2023-01-01T23:09:11.603Z,58.47
2023-01-01T23:11:39.139Z,59.58
2023-01-01T23:14:25.948Z,58.35
2023-01-01T23:16:52.857Z,60.25
2023-01-01T23:19:19.847Z,59.95
2023-01-01T23:21:47.194Z,58.30
2023-01-01T23:24:18.247Z,59.20
2023-01-01T23:26:46.744Z,62.22
2023-01-01T23:29:14.563Z,60.80
2023-01-01T23:31:42.594Z,59.95
2023-01-01T23:34:09.878Z,59.25
2023-01-01T23:36:38.092Z,61.10
2023-01-01T23:39:05.205Z,59.75
2023-01-01T23:41:32.286Z,58.67
2023-01-01T23:43:59.187Z,60.08
2023-01-01T23:46:26.219Z,58.58
2023-01-01T23:48:54.131Z,59.63
2023-01-01T23:51:21.394Z,60.55
2023-01-01T23:53:48.321Z,61.40
2023-01-01T23:56:15.419Z,61.72
2023-01-01T23:58:42.427Z,59.42
